Georgetown, KY (40324)

8:12 AM EST on March 06, 2015 (GMT -0500)
North Elkhorn Creek | Change Station
CLOSE
Current Station
Personal Weather Station
Location: Georgetown, KY
Elevation: 817 ft
Nearby Weather Stations

Elev 817 ft 38.23 °N, 84.55 °W | Updated 2 minutes ago

Partly Cloudy
Partly Cloudy
-1.9 °F
Feels Like -2 °F
N
0.0
Wind Variable Wind from North

Today
High -- | Low -- °F
--% Chance of Precip.
Yesterday
High -- | Low -- °F
Precip. -- in
7:03 AM 6:36 PM
Waxing Gibbous, 99% visible
Pressure 30.60 in
Visibility 10.0 miles
Clouds Clear
Windchill -2 °F
Dew Point -5 °F
Humidity 88%
Rainfall in
Snow Depth Not available.
UV 0 out of 12
Pollen 1.50 out of 12
Air Quality Not available.
Flu Activity Not available.
METAR KLEX 061254Z 13004KT 10SM CLR M19/M19 A3054 RMK AO2 UPE27SNB24E25B27E54 SLP360 P0000 T11891194

More Conditions Fewer Conditions

Pressure 30.60 in
Visibility 10.0 miles
Clouds Clear
Windchill -2 °F
Dew Point -5 °F
Humidity 88%
Rainfall in
Snow Depth Not available.
UV 0 out of 12
Pollen 1.50 out of 12
Air Quality Not available.
Flu Activity Not available.
METAR KLEX 061254Z 13004KT 10SM CLR M19/M19 A3054 RMK AO2 UPE27SNB24E25B27E54 SLP360 P0000 T11891194

More Conditions Fewer Conditions

10-Day Weather Forecast

Almanac

Astronomy

Mar. 06, 2015 Rise Set
Actual Time
Civil Twilight
Nautical Twilight
Astronomical Twilight
Moon
Length of Visible Light
Length of Day
Tomorrow will be .
, % of the Moon is Illuminated

Today's Extremes

State Highs State Lows

Community

WunderPhotos

Upload Photos

1,803,258 photos uploaded!

WunderBlogs® & News

Nearby

Air Quality

  Air Quality AQ Index Pollutant
Not available.

Snow Depth

Station Depth Elevation

Earthquake Activity

City Distance Mag. Time & Date
Minimum magnitude displayed is 2.5.

Coastal Water Temperatures

Place Temperature

Nearby Weather Stations

Special Statement
Statement as of 3:51 AM CST on March 06, 2015

... Patchy dense fog and slick Road conditions this morning...

Patchy ground fog is occurring over portions of central Kentucky
and southern Indiana. Where the fog is most dense visibilities are
under a quarter of a mile. Fog this dense can cause slick spots on
area roads... even on roads that have been cleared from the snow
yesterday. If you are on the roads and encounter this fog... slow
down and use your low-beam headlights until you get clear of it.
Conditions should improve by mid morning.